Time;durP1;ratioP1;P1;durP2;ratioP2;P2;SDS_P1;SDS_P2;PMS_P1;PMS_P2;Temp;Humidity;BMP_temperature;BMP_pressure;BME280_temperature;BME280_humidity;BME280_pressure;Samples;Min_cycle;Max_cycle;Signal;HPM_P1;HPM_P2
2022/11/24 00:01:14;;;;;;;33.38;7.32;;;7.00;99.90;;;;;;5099371;28;20051;-80
2022/11/24 00:03:40;;;;;;;28.85;7.55;;;7.10;99.90;;;;;;5073623;28;20037;-80
2022/11/24 00:06:09;;;;;;;27.38;8.90;;;7.10;99.90;;;;;;5073962;28;20117;-81
2022/11/24 00:08:37;;;;;;;29.85;8.00;;;7.10;99.90;;;;;;5080100;28;20048;-80
2022/11/24 00:11:04;;;;;;;21.95;7.32;;;7.20;99.90;;;;;;5093876;28;20055;-80
2022/11/24 00:13:32;;;;;;;31.20;8.70;;;7.10;99.90;;;;;;5054122;28;20044;-80
2022/11/24 00:16:05;;;;;;;30.25;8.60;;;7.10;99.90;;;;;;5073921;28;20101;-80
2022/11/24 00:18:31;;;;;;;31.27;8.10;;;7.10;99.90;;;;;;5070007;28;20088;-81
2022/11/24 00:20:57;;;;;;;38.35;8.25;;;7.20;99.90;;;;;;5066680;28;20080;-82
2022/11/24 00:23:23;;;;;;;31.40;8.25;;;7.20;99.90;;;;;;5036304;28;20040;-80
2022/11/24 00:25:48;;;;;;;30.55;8.18;;;7.20;99.90;;;;;;5072991;28;20043;-81
2022/11/24 00:28:14;;;;;;;26.52;8.10;;;7.20;99.90;;;;;;5036805;28;20064;-80
2022/11/24 00:30:40;;;;;;;31.83;8.13;;;7.10;99.90;;;;;;5081879;28;20056;-80
2022/11/24 00:33:05;;;;;;;30.45;8.43;;;7.10;99.90;;;;;;5068311;28;20058;-81
2022/11/24 00:35:31;;;;;;;31.30;8.48;;;7.20;99.90;;;;;;5069905;28;20043;-81
2022/11/24 00:37:56;;;;;;;35.42;9.00;;;7.20;99.90;;;;;;5086599;28;20103;-80
2022/11/24 00:40:22;;;;;;;36.03;8.95;;;7.20;99.90;;;;;;5097581;28;20486;-80
2022/11/24 00:42:48;;;;;;;36.13;11.50;;;7.20;99.90;;;;;;5093622;28;20464;-81
2022/11/24 00:45:13;;;;;;;31.55;8.45;;;7.20;99.90;;;;;;5069601;28;20599;-80
2022/11/24 00:47:39;;;;;;;35.88;9.07;;;7.20;99.90;;;;;;5069732;28;20489;-80
2022/11/24 00:50:05;;;;;;;40.70;9.70;;;7.20;99.90;;;;;;5072915;28;20064;-80
2022/11/24 00:52:31;;;;;;;32.67;8.95;;;7.20;99.90;;;;;;5076218;28;20055;-83
2022/11/24 00:54:56;;;;;;;45.38;9.10;;;7.30;99.90;;;;;;5067684;28;20053;-80
2022/11/24 00:57:22;;;;;;;33.78;9.52;;;7.30;99.90;;;;;;5054081;28;20090;-80
2022/11/24 00:59:48;;;;;;;33.30;8.55;;;7.40;99.90;;;;;;5053969;28;20045;-80
2022/11/24 01:02:13;;;;;;;27.25;8.52;;;7.50;99.90;;;;;;5086082;28;20044;-80
2022/11/24 01:04:39;;;;;;;34.47;8.25;;;7.50;99.90;;;;;;5080992;28;20493;-80
2022/11/24 01:07:05;;;;;;;40.50;9.35;;;7.50;99.90;;;;;;5069489;28;20057;-81
2022/11/24 01:09:31;;;;;;;36.83;8.88;;;7.60;99.90;;;;;;5086265;28;20102;-80
2022/11/24 01:12:02;;;;;;;49.08;9.43;;;7.60;99.90;;;;;;5101272;27;20032;-80
2022/11/24 01:14:29;;;;;;;40.05;7.90;;;7.60;99.90;;;;;;5074016;28;20055;-80
2022/11/24 01:16:55;;;;;;;40.95;8.30;;;7.70;99.90;;;;;;5075564;28;20500;-80
2022/11/24 01:19:22;;;;;;;38.92;7.75;;;7.60;99.90;;;;;;5073027;28;20048;-80
2022/11/24 01:21:47;;;;;;;40.22;7.85;;;7.70;99.90;;;;;;5055316;28;20114;-81
2022/11/24 01:24:14;;;;;;;37.63;7.38;;;7.70;99.90;;;;;;5053834;28;20083;-80
2022/11/24 01:26:40;;;;;;;37.72;7.53;;;7.70;99.90;;;;;;5093038;28;20483;-80
2022/11/24 01:29:06;;;;;;;29.52;7.22;;;7.70;99.90;;;;;;5092349;28;20056;-79
2022/11/24 01:31:32;;;;;;;33.88;6.78;;;7.70;99.90;;;;;;5080273;28;20041;-79
2022/11/24 01:33:58;;;;;;;36.35;7.00;;;7.70;99.90;;;;;;5071698;28;20510;-79
2022/11/24 01:36:24;;;;;;;40.75;7.32;;;7.70;99.90;;;;;;5051544;28;20123;-80
2022/11/24 01:38:50;;;;;;;39.80;6.90;;;7.70;99.90;;;;;;5068870;28;20080;-79
2022/11/24 01:41:19;;;;;;;28.85;6.05;;;7.80;99.90;;;;;;5071995;28;20076;-80
2022/11/24 01:43:46;;;;;;;31.13;6.93;;;7.80;99.90;;;;;;5071593;28;20431;-79
2022/11/24 01:46:18;;;;;;;38.92;5.80;;;7.80;99.90;;;;;;5055146;28;20052;-80
2022/11/24 01:49:01;;;;;;;29.10;5.43;;;7.80;99.90;;;;;;5068572;28;20429;-81
2022/11/24 01:51:29;;;;;;;39.50;6.15;;;7.90;99.90;;;;;;5071263;28;20041;-80
2022/11/24 01:54:10;;;;;;;39.38;5.93;;;8.00;99.90;;;;;;5073752;28;20122;-79
2022/11/24 01:56:39;;;;;;;34.90;6.10;;;7.90;99.90;;;;;;5052351;28;20045;-79
2022/11/24 01:59:09;;;;;;;33.03;6.40;;;7.90;99.90;;;;;;5053255;28;20524;-80
2022/11/24 02:01:34;;;;;;;35.15;6.32;;;8.00;99.90;;;;;;5085252;28;20140;-79
2022/11/24 02:04:05;;;;;;;28.33;5.70;;;8.00;99.90;;;;;;5080009;28;20123;-80
2022/11/24 02:06:32;;;;;;;34.33;5.85;;;8.00;99.90;;;;;;5082846;28;20048;-81
2022/11/24 02:09:18;;;;;;;31.65;5.18;;;7.90;99.90;;;;;;5087614;28;20119;-79
2022/11/24 02:11:45;;;;;;;30.55;5.75;;;7.90;99.90;;;;;;5088691;28;20127;-80
2022/11/24 02:14:14;;;;;;;32.83;6.80;;;8.00;99.90;;;;;;5083668;28;20083;-79
2022/11/24 02:16:42;;;;;;;31.50;5.38;;;7.90;99.90;;;;;;5084451;28;20051;-80
2022/11/24 02:19:40;;;;;;;34.35;5.65;;;7.90;99.90;;;;;;5077239;28;20377;-79
2022/11/24 02:22:43;;;;;;;31.85;4.75;;;7.90;99.90;;;;;;5071502;28;20491;-80
2022/11/24 02:25:15;;;;;;;22.75;4.78;;;7.90;99.90;;;;;;5053342;28;20522;-80
2022/11/24 02:27:43;;;;;;;38.38;5.35;;;7.80;99.90;;;;;;5081765;28;20427;-79
2022/11/24 02:30:09;;;;;;;28.27;5.00;;;7.80;99.90;;;;;;5055721;28;20056;-80
2022/11/24 02:32:39;;;;;;;26.48;4.05;;;7.80;99.90;;;;;;5087686;28;20086;-80
2022/11/24 02:35:07;;;;;;;24.38;4.22;;;7.90;99.90;;;;;;5081765;28;20065;-80
2022/11/24 02:37:33;;;;;;;35.22;4.72;;;7.90;99.90;;;;;;5092873;28;20407;-79
2022/11/24 02:39:59;;;;;;;24.10;4.05;;;7.80;99.90;;;;;;5078360;28;20056;-79
2022/11/24 02:42:27;;;;;;;22.55;4.35;;;7.80;99.90;;;;;;5075518;28;20044;-79
2022/11/24 02:44:57;;;;;;;26.38;4.22;;;7.90;99.90;;;;;;5075848;28;20052;-80
2022/11/24 02:47:22;;;;;;;29.17;4.82;;;7.90;99.90;;;;;;5080110;28;20048;-79
2022/11/24 02:49:48;;;;;;;25.67;4.53;;;7.90;99.90;;;;;;5079116;28;20044;-80
2022/11/24 02:52:14;;;;;;;23.23;4.38;;;7.80;99.90;;;;;;5087783;28;20036;-79
2022/11/24 02:54:40;;;;;;;32.00;4.55;;;7.90;99.90;;;;;;5078603;28;20422;-80
2022/11/24 02:57:06;;;;;;;24.20;4.43;;;7.80;99.90;;;;;;5087847;28;20043;-80
2022/11/24 02:59:32;;;;;;;24.60;4.70;;;7.80;99.90;;;;;;5074338;28;20076;-79
2022/11/24 03:01:57;;;;;;;23.50;4.10;;;7.90;99.90;;;;;;5090871;28;20080;-79
2022/11/24 03:04:23;;;;;;;26.38;5.00;;;7.90;99.90;;;;;;5071077;28;20044;-80
2022/11/24 03:06:49;;;;;;;27.52;4.75;;;7.90;99.90;;;;;;5095032;28;20048;-83
2022/11/24 03:09:15;;;;;;;23.00;4.07;;;7.90;99.90;;;;;;5091052;28;20045;-79
2022/11/24 03:11:40;;;;;;;23.13;3.58;;;7.90;99.90;;;;;;5103154;28;20396;-79
2022/11/24 03:14:06;;;;;;;31.65;5.10;;;7.90;99.90;;;;;;5094880;28;20052;-79
2022/11/24 03:16:32;;;;;;;22.60;4.30;;;7.80;99.90;;;;;;5095563;28;20051;-79
2022/11/24 03:18:58;;;;;;;21.08;3.90;;;7.80;99.90;;;;;;5077514;28;20120;-80
2022/11/24 03:21:24;;;;;;;22.83;4.65;;;7.80;99.90;;;;;;5073542;28;20120;-79
2022/11/24 03:23:51;;;;;;;23.98;4.57;;;7.80;99.90;;;;;;5065528;28;20084;-82
2022/11/24 03:26:18;;;;;;;23.60;4.07;;;7.70;99.90;;;;;;5044440;28;20436;-79
2022/11/24 03:28:44;;;;;;;19.77;4.20;;;7.70;99.90;;;;;;5100517;27;20056;-80
2022/11/24 03:31:10;;;;;;;27.13;4.70;;;7.70;99.90;;;;;;5086037;28;20181;-79
2022/11/24 03:33:36;;;;;;;23.65;4.18;;;7.70;99.90;;;;;;5065667;28;20068;-79
2022/11/24 03:36:04;;;;;;;25.73;4.78;;;7.70;99.90;;;;;;5050260;28;20558;-79
2022/11/24 03:38:30;;;;;;;26.33;4.75;;;7.60;99.90;;;;;;5085352;28;20165;-79
2022/11/24 03:40:55;;;;;;;28.75;4.47;;;7.60;99.90;;;;;;5077163;28;20485;-80
2022/11/24 03:43:21;;;;;;;32.75;4.65;;;7.60;99.90;;;;;;5085430;28;20041;-80
2022/11/24 03:45:48;;;;;;;24.05;4.47;;;7.60;99.90;;;;;;5074090;28;20044;-79
2022/11/24 03:48:16;;;;;;;20.85;4.10;;;7.60;99.90;;;;;;5074097;28;20112;-79
2022/11/24 03:50:42;;;;;;;24.77;5.38;;;7.60;99.90;;;;;;5072319;28;20073;-79
2022/11/24 03:53:08;;;;;;;19.33;4.07;;;7.60;99.90;;;;;;5078502;28;20510;-80
2022/11/24 03:55:34;;;;;;;24.40;4.65;;;7.60;99.90;;;;;;5094016;28;20051;-79
2022/11/24 03:58:00;;;;;;;22.85;3.90;;;7.60;99.90;;;;;;5080123;28;20040;-79
2022/11/24 04:00:26;;;;;;;24.73;4.10;;;7.70;99.90;;;;;;5049708;28;20106;-79
2022/11/24 04:02:52;;;;;;;20.65;4.13;;;7.70;99.90;;;;;;5088507;28;20048;-80
2022/11/24 04:05:18;;;;;;;27.42;5.10;;;7.70;99.90;;;;;;5054886;28;20480;-80
2022/11/24 04:07:44;;;;;;;23.80;5.75;;;7.70;99.90;;;;;;5088765;28;20040;-80
2022/11/24 04:10:09;;;;;;;23.35;4.50;;;7.70;99.90;;;;;;5094989;28;20048;-80
2022/11/24 04:12:44;;;;;;;25.40;5.97;;;7.80;99.90;;;;;;5065392;28;20127;-81
2022/11/24 04:15:11;;;;;;;24.33;5.63;;;7.80;99.90;;;;;;5074797;28;20052;-81
2022/11/24 04:17:37;;;;;;;28.67;4.80;;;7.80;99.90;;;;;;5065886;28;20080;-80
2022/11/24 04:20:04;;;;;;;32.55;5.63;;;7.80;99.90;;;;;;5057306;28;20547;-81
2022/11/24 04:22:29;;;;;;;25.90;4.18;;;7.80;99.90;;;;;;5103529;27;20052;-80
2022/11/24 04:24:55;;;;;;;26.30;4.53;;;7.80;99.90;;;;;;5091827;28;20052;-81
2022/11/24 04:27:21;;;;;;;21.75;4.40;;;7.80;99.90;;;;;;5079772;28;20045;-80
2022/11/24 04:29:47;;;;;;;30.75;5.00;;;7.80;99.90;;;;;;5086898;28;20500;-80
2022/11/24 04:32:12;;;;;;;26.83;4.97;;;7.70;99.90;;;;;;5078618;28;20070;-81
2022/11/24 04:34:38;;;;;;;32.10;5.00;;;7.70;99.90;;;;;;5106987;28;20036;-80
2022/11/24 04:37:04;;;;;;;23.23;4.18;;;7.60;99.90;;;;;;5108279;27;20099;-80
2022/11/24 04:39:30;;;;;;;32.05;5.53;;;7.60;99.90;;;;;;5106027;28;20056;-80
2022/11/24 04:41:55;;;;;;;24.38;4.35;;;7.50;99.90;;;;;;5109271;27;20044;-80
2022/11/24 04:44:21;;;;;;;24.80;4.68;;;7.50;99.90;;;;;;5107166;28;20044;-80
2022/11/24 04:46:47;;;;;;;25.00;4.78;;;7.40;99.90;;;;;;5090388;28;20499;-81
2022/11/24 04:49:12;;;;;;;28.67;4.68;;;7.40;99.90;;;;;;5073769;28;20057;-80
2022/11/24 04:51:39;;;;;;;23.27;5.03;;;7.30;99.90;;;;;;5072542;28;20075;-80
2022/11/24 04:54:11;;;;;;;27.63;4.72;;;7.30;99.90;;;;;;5073946;28;20052;-80
2022/11/24 04:56:37;;;;;;;30.92;4.50;;;7.30;99.90;;;;;;5072587;28;20126;-80
2022/11/24 04:59:03;;;;;;;19.17;4.68;;;7.30;99.90;;;;;;5079659;28;20422;-81
2022/11/24 05:01:29;;;;;;;27.92;5.53;;;7.20;99.90;;;;;;5076715;28;20070;-79
2022/11/24 05:03:55;;;;;;;24.30;4.93;;;7.20;99.90;;;;;;5084437;28;20125;-80
2022/11/24 05:06:22;;;;;;;28.42;5.10;;;7.20;99.90;;;;;;5093142;28;20063;-80
2022/11/24 05:08:51;;;;;;;25.35;4.63;;;7.10;99.90;;;;;;5070983;28;20036;-80
2022/11/24 05:11:18;;;;;;;27.30;5.32;;;7.10;99.90;;;;;;5077438;28;20418;-79
2022/11/24 05:13:44;;;;;;;25.98;4.70;;;7.10;99.90;;;;;;5073786;28;20033;-80
2022/11/24 05:16:10;;;;;;;25.50;5.00;;;7.10;99.90;;;;;;5073581;28;20439;-81
2022/11/24 05:18:36;;;;;;;23.23;4.53;;;7.00;99.90;;;;;;5072646;28;20048;-80
2022/11/24 05:21:03;;;;;;;25.13;4.50;;;7.00;99.90;;;;;;5071620;28;20052;-80
2022/11/24 05:23:29;;;;;;;26.02;4.78;;;7.00;99.90;;;;;;5072228;28;20148;-80
2022/11/24 05:26:01;;;;;;;22.00;3.95;;;7.00;99.90;;;;;;5072389;28;20048;-80
2022/11/24 05:28:27;;;;;;;20.98;4.10;;;7.10;99.90;;;;;;5073438;28;20095;-80
2022/11/24 05:30:53;;;;;;;22.92;4.18;;;7.00;99.90;;;;;;5072653;28;20078;-80
2022/11/24 05:33:21;;;;;;;27.85;4.20;;;7.00;99.90;;;;;;5076318;28;20380;-80
2022/11/24 05:35:48;;;;;;;26.45;4.60;;;7.10;99.90;;;;;;5073750;28;20048;-81
2022/11/24 05:38:15;;;;;;;24.30;4.30;;;7.10;99.90;;;;;;5083162;28;20173;-80
2022/11/24 05:40:41;;;;;;;25.77;4.40;;;7.10;99.90;;;;;;5072022;28;20076;-81
2022/11/24 05:43:14;;;;;;;29.42;4.35;;;7.10;99.90;;;;;;5055112;28;20122;-81
2022/11/24 05:45:40;;;;;;;25.77;5.15;;;7.20;99.90;;;;;;5072417;28;20421;-81
2022/11/24 05:48:08;;;;;;;29.75;4.97;;;7.20;99.90;;;;;;5071889;28;20036;-80
2022/11/24 05:50:35;;;;;;;23.08;4.03;;;7.20;99.90;;;;;;5072238;28;20143;-80
2022/11/24 05:53:09;;;;;;;23.83;4.07;;;7.30;99.90;;;;;;5054581;28;20145;-80
2022/11/24 05:55:35;;;;;;;30.10;4.95;;;7.30;99.90;;;;;;5072220;28;20044;-80
2022/11/24 05:58:04;;;;;;;28.00;4.40;;;7.30;99.90;;;;;;5105916;28;20062;-80
2022/11/24 06:00:31;;;;;;;25.17;4.22;;;7.30;99.90;;;;;;5088502;28;20083;-80
2022/11/24 06:02:58;;;;;;;23.67;3.75;;;7.40;99.90;;;;;;5062554;28;20045;-80
2022/11/24 06:05:24;;;;;;;26.83;4.43;;;7.40;99.90;;;;;;5068375;28;20076;-80
2022/11/24 06:07:51;;;;;;;25.08;3.88;;;7.40;99.90;;;;;;5063937;28;20063;-80
2022/11/24 06:10:18;;;;;;;21.67;4.18;;;7.30;99.90;;;;;;5052929;28;20040;-81
2022/11/24 06:12:44;;;;;;;23.23;4.25;;;7.50;99.90;;;;;;5051858;28;20037;-80
2022/11/24 06:15:10;;;;;;;18.45;3.70;;;7.40;99.90;;;;;;5052068;28;20056;-80
2022/11/24 06:17:37;;;;;;;21.02;3.83;;;7.40;99.90;;;;;;5052621;28;20052;-80
2022/11/24 06:20:04;;;;;;;18.30;3.58;;;7.40;99.90;;;;;;5051882;28;20040;-80
2022/11/24 06:22:31;;;;;;;20.33;3.78;;;7.50;99.90;;;;;;5067973;28;20124;-80
2022/11/24 06:24:56;;;;;;;20.17;3.88;;;7.50;99.90;;;;;;5050691;28;20131;-80
2022/11/24 06:27:22;;;;;;;24.50;4.55;;;7.50;99.90;;;;;;5071550;28;20147;-80
2022/11/24 06:29:48;;;;;;;24.98;3.85;;;7.50;99.90;;;;;;5105050;28;20555;-80
2022/11/24 06:32:14;;;;;;;19.23;4.18;;;7.50;99.90;;;;;;5071664;28;20048;-85
2022/11/24 06:34:40;;;;;;;20.38;3.65;;;7.50;99.90;;;;;;5103631;28;20128;-81
2022/11/24 06:37:05;;;;;;;19.13;3.83;;;7.50;99.90;;;;;;5088471;28;20048;-81
2022/11/24 06:39:31;;;;;;;17.02;3.70;;;7.50;99.90;;;;;;5071391;28;20048;-81
2022/11/24 06:41:57;;;;;;;20.75;4.38;;;7.40;99.90;;;;;;5071456;28;20051;-80
2022/11/24 06:44:23;;;;;;;27.42;4.80;;;7.40;99.90;;;;;;5070951;28;20093;-80
2022/11/24 06:46:48;;;;;;;19.83;3.72;;;7.40;99.90;;;;;;5052677;28;20145;-80
2022/11/24 06:49:14;;;;;;;22.77;3.85;;;7.40;99.90;;;;;;5068230;28;20049;-80
2022/11/24 06:51:41;;;;;;;24.95;3.80;;;7.40;99.90;;;;;;5051424;28;20481;-80
2022/11/24 06:54:08;;;;;;;22.38;4.00;;;7.40;99.90;;;;;;5082241;28;20056;-80
2022/11/24 06:56:34;;;;;;;22.80;4.00;;;7.30;99.90;;;;;;5081071;28;20080;-80
2022/11/24 06:59:00;;;;;;;23.33;4.78;;;7.40;99.90;;;;;;5066917;28;20106;-80
2022/11/24 07:01:28;;;;;;;24.67;4.03;;;7.40;99.90;;;;;;5063283;28;20040;-81
2022/11/24 07:03:55;;;;;;;21.23;3.65;;;7.30;99.90;;;;;;5085652;28;20115;-82
2022/11/24 07:06:22;;;;;;;25.65;5.05;;;7.30;99.90;;;;;;5084306;28;20045;-78
2022/11/24 07:08:48;;;;;;;22.65;3.85;;;7.30;99.90;;;;;;5051043;28;20132;-84
2022/11/24 07:11:17;;;;;;;17.60;4.45;;;7.30;99.90;;;;;;5088401;28;20051;-80
2022/11/24 07:13:44;;;;;;;24.38;4.25;;;7.30;99.90;;;;;;5084874;28;20094;-80
2022/11/24 07:16:21;;;;;;;22.45;4.38;;;7.30;99.90;;;;;;5091366;28;20117;-80
2022/11/24 07:18:50;;;;;;;21.48;4.20;;;7.30;99.90;;;;;;5086078;28;20123;-79
2022/11/24 07:21:16;;;;;;;24.90;3.95;;;7.30;99.90;;;;;;5074138;28;20048;-79
2022/11/24 07:23:42;;;;;;;20.10;4.38;;;7.30;99.90;;;;;;5057688;28;20044;-79
2022/11/24 07:26:09;;;;;;;19.50;4.53;;;7.20;99.90;;;;;;5074864;28;20549;-79
2022/11/24 07:28:35;;;;;;;17.40;3.70;;;7.20;99.90;;;;;;5075417;28;20129;-79
2022/11/24 07:31:09;;;;;;;22.70;4.25;;;7.20;99.90;;;;;;5076565;28;20080;-78
2022/11/24 07:33:35;;;;;;;29.38;4.82;;;7.20;99.90;;;;;;5074780;28;20428;-78
2022/11/24 07:36:01;;;;;;;16.80;3.45;;;7.20;99.90;;;;;;5058265;28;20045;-78
2022/11/24 07:38:29;;;;;;;18.58;3.42;;;7.20;99.90;;;;;;5085251;28;20052;-78
2022/11/24 07:41:03;;;;;;;16.45;3.15;;;7.20;99.90;;;;;;5074813;28;20400;-78
2022/11/24 07:43:31;;;;;;;23.33;3.55;;;7.10;99.90;;;;;;5080859;28;20118;-78
2022/11/24 07:45:56;;;;;;;16.98;3.40;;;7.10;99.90;;;;;;5076307;28;20153;-79
2022/11/24 07:48:22;;;;;;;19.17;3.35;;;7.10;99.90;;;;;;5057696;28;20086;-80
2022/11/24 07:50:49;;;;;;;14.70;3.40;;;7.20;99.90;;;;;;5073960;28;20044;-81
2022/11/24 07:53:15;;;;;;;18.20;3.50;;;7.10;99.90;;;;;;5040953;28;20049;-81
2022/11/24 07:55:41;;;;;;;17.55;3.53;;;7.20;99.90;;;;;;5074111;28;20049;-81
2022/11/24 07:58:06;;;;;;;17.30;3.58;;;7.20;99.90;;;;;;5074404;28;20132;-81
2022/11/24 08:00:32;;;;;;;15.88;3.20;;;7.10;99.90;;;;;;5090618;28;20048;-81
2022/11/24 08:02:58;;;;;;;14.70;3.50;;;7.20;99.90;;;;;;5074011;28;20045;-81
2022/11/24 08:05:23;;;;;;;20.40;3.30;;;7.20;99.90;;;;;;5078211;28;20047;-81
2022/11/24 08:07:49;;;;;;;14.45;3.00;;;7.30;99.90;;;;;;5087527;28;20076;-81
2022/11/24 08:10:15;;;;;;;21.52;3.65;;;7.40;99.90;;;;;;5070450;28;20051;-80
2022/11/24 08:12:41;;;;;;;11.85;3.55;;;7.50;99.90;;;;;;5086923;28;20084;-80
2022/11/24 08:15:08;;;;;;;12.02;3.60;;;7.60;99.90;;;;;;5070230;28;20048;-80
2022/11/24 08:17:34;;;;;;;11.00;2.92;;;7.70;99.90;;;;;;5101814;28;20087;-81
2022/11/24 08:20:00;;;;;;;17.77;3.47;;;7.70;99.90;;;;;;5104276;28;20080;-80
2022/11/24 08:22:25;;;;;;;11.95;2.63;;;7.70;99.90;;;;;;5055024;28;20041;-79
2022/11/24 08:24:51;;;;;;;13.60;2.85;;;7.90;99.90;;;;;;5096857;27;20044;-79
2022/11/24 08:27:18;;;;;;;19.15;3.30;;;7.90;99.90;;;;;;5094065;28;20399;-79
2022/11/24 08:29:44;;;;;;;18.77;3.00;;;7.90;99.90;;;;;;5054976;28;20053;-78
2022/11/24 08:32:10;;;;;;;19.75;3.30;;;7.90;99.90;;;;;;5086356;28;20051;-81
2022/11/24 08:34:37;;;;;;;10.75;2.50;;;7.90;99.90;;;;;;5093344;28;20052;-81
2022/11/24 08:37:04;;;;;;;13.00;3.03;;;7.90;99.90;;;;;;5088367;28;20055;-80
2022/11/24 08:39:30;;;;;;;20.33;3.45;;;7.90;99.90;;;;;;5089887;28;20138;-79
2022/11/24 08:41:55;;;;;;;14.65;2.95;;;7.90;99.90;;;;;;5061103;28;20136;-80
2022/11/24 08:44:21;;;;;;;14.07;3.40;;;7.90;99.90;;;;;;5088198;28;20116;-80
2022/11/24 08:46:47;;;;;;;16.33;3.38;;;7.90;99.90;;;;;;5073544;28;20048;-79
2022/11/24 08:49:13;;;;;;;22.80;4.35;;;8.00;99.90;;;;;;5066210;28;20138;-81
2022/11/24 08:51:40;;;;;;;12.57;2.88;;;8.00;99.90;;;;;;5051163;28;20059;-83
2022/11/24 08:54:07;;;;;;;14.02;2.80;;;8.00;99.90;;;;;;5068092;28;20067;-82
2022/11/24 08:56:33;;;;;;;13.00;3.13;;;8.00;99.90;;;;;;5066373;28;20103;-80
2022/11/24 08:58:59;;;;;;;16.40;3.25;;;8.00;99.90;;;;;;5058195;28;20044;-81
2022/11/24 09:01:26;;;;;;;16.17;3.60;;;8.00;99.90;;;;;;5090810;28;20052;-81
2022/11/24 09:03:52;;;;;;;13.40;3.35;;;8.10;99.90;;;;;;5082970;28;20397;-79
2022/11/24 09:06:23;;;;;;;22.13;4.68;;;8.10;99.90;;;;;;5071257;28;20395;-81
2022/11/24 09:08:50;;;;;;;16.40;4.82;;;8.20;99.90;;;;;;5069832;28;20056;-80
2022/11/24 09:11:16;;;;;;;12.45;2.97;;;8.20;99.90;;;;;;5089918;28;20047;-81
2022/11/24 09:13:43;;;;;;;11.50;3.83;;;8.20;99.90;;;;;;5061065;28;20448;-81
2022/11/24 09:16:18;;;;;;;11.82;3.90;;;8.20;99.90;;;;;;5070356;28;20048;-81
2022/11/24 09:18:44;;;;;;;18.03;3.90;;;8.30;99.90;;;;;;5069714;28;20076;-81
2022/11/24 09:21:14;;;;;;;16.67;3.40;;;8.30;99.90;;;;;;5071335;28;20044;-81
2022/11/24 09:23:41;;;;;;;11.35;3.22;;;8.20;99.90;;;;;;5069321;28;20041;-81
2022/11/24 09:26:12;;;;;;;17.65;3.03;;;8.30;99.90;;;;;;5069863;28;20079;-81
2022/11/24 09:28:38;;;;;;;16.23;3.28;;;8.30;99.90;;;;;;5085944;28;20060;-80
2022/11/24 09:31:06;;;;;;;18.90;3.30;;;8.40;99.90;;;;;;5086531;28;20060;-82
2022/11/24 09:33:32;;;;;;;15.20;3.53;;;8.40;99.90;;;;;;5069744;28;20126;-80
2022/11/24 09:35:59;;;;;;;14.05;2.88;;;8.50;99.90;;;;;;5069345;28;20046;-81
2022/11/24 09:38:25;;;;;;;12.02;2.72;;;8.50;99.90;;;;;;5053720;28;20044;-80
2022/11/24 09:40:51;;;;;;;11.50;2.47;;;8.60;99.90;;;;;;5053244;28;20113;-80
2022/11/24 09:43:35;;;;;;;14.85;2.42;;;8.60;99.90;;;;;;5052705;28;20067;-81
2022/11/24 09:46:24;;;;;;;13.48;2.40;;;8.70;99.90;;;;;;5068959;28;20052;-81
2022/11/24 09:48:54;;;;;;;14.52;2.45;;;8.70;99.90;;;;;;5052583;28;20833;-80
2022/11/24 09:51:24;;;;;;;17.15;2.40;;;8.70;99.90;;;;;;5051682;28;20072;-80
2022/11/24 09:53:58;;;;;;;12.43;2.17;;;8.80;99.90;;;;;;5064330;28;20052;-81
2022/11/24 09:56:27;;;;;;;13.88;2.95;;;8.90;99.90;;;;;;5069175;28;20048;-81
2022/11/24 09:58:59;;;;;;;11.30;2.33;;;8.80;99.90;;;;;;5103098;28;20057;-80
2022/11/24 10:01:30;;;;;;;13.15;2.10;;;8.80;99.90;;;;;;5069299;28;20049;-81
2022/11/24 10:03:56;;;;;;;12.30;2.40;;;8.90;99.90;;;;;;5070102;28;20515;-79
2022/11/24 10:06:31;;;;;;;12.65;2.30;;;8.90;99.90;;;;;;5069012;28;20427;-82
2022/11/24 10:09:08;;;;;;;12.80;2.67;;;9.00;99.90;;;;;;5050601;28;20139;-83
2022/11/24 10:11:44;;;;;;;11.65;2.38;;;9.10;99.90;;;;;;5052612;28;20485;-82
2022/11/24 10:14:54;;;;;;;14.80;2.45;;;9.20;99.90;;;;;;5069535;28;20511;-79
2022/11/24 10:18:01;;;;;;;11.75;2.15;;;9.30;99.90;;;;;;5069007;28;20051;-81
2022/11/24 10:20:41;;;;;;;13.03;2.90;;;9.30;99.90;;;;;;5049560;28;20064;-80
2022/11/24 10:23:40;;;;;;;10.32;2.33;;;9.20;99.90;;;;;;5050293;28;20300;-80
2022/11/24 10:26:26;;;;;;;13.02;2.60;;;9.20;99.90;;;;;;5037578;28;20059;-81
2022/11/24 10:28:55;;;;;;;10.63;2.47;;;9.30;99.90;;;;;;5068106;28;20131;-80
2022/11/24 10:31:38;;;;;;;12.15;2.22;;;9.40;99.90;;;;;;5052442;28;20513;-81
2022/11/24 10:34:16;;;;;;;13.48;2.30;;;9.40;99.90;;;;;;5069736;28;20131;-81
2022/11/24 10:36:54;;;;;;;17.48;3.08;;;9.40;99.90;;;;;;5069117;28;20044;-80
2022/11/24 10:39:45;;;;;;;9.07;2.25;;;9.50;99.90;;;;;;5070384;28;20131;-80
2022/11/24 10:42:14;;;;;;;12.90;2.60;;;9.50;99.90;;;;;;5069026;28;20117;-82
2022/11/24 10:44:41;;;;;;;12.38;2.58;;;9.60;99.90;;;;;;5069159;28;20131;-81
2022/11/24 10:47:21;;;;;;;13.45;3.22;;;9.70;99.90;;;;;;5051252;28;20040;-81
2022/11/24 10:50:12;;;;;;;14.93;2.92;;;9.70;99.90;;;;;;5068047;28;20074;-80
2022/11/24 10:52:45;;;;;;;12.73;2.97;;;9.80;99.90;;;;;;5069019;28;20047;-79
2022/11/24 10:55:11;;;;;;;11.77;3.00;;;9.90;99.90;;;;;;5070438;28;20136;-80
2022/11/24 10:57:38;;;;;;;9.88;2.45;;;10.00;99.90;;;;;;5071915;28;20120;-78
2022/11/24 11:00:24;;;;;;;12.52;3.17;;;10.10;99.90;;;;;;5072150;28;20143;-80
2022/11/24 11:03:09;;;;;;;9.63;2.72;;;10.50;99.90;;;;;;5072201;28;20476;-80
2022/11/24 11:05:41;;;;;;;9.88;2.47;;;10.80;99.90;;;;;;5073822;28;20044;-79
2022/11/24 11:08:13;;;;;;;11.43;2.63;;;11.20;99.90;;;;;;5053424;28;20055;-79
2022/11/24 11:10:39;;;;;;;8.27;2.40;;;11.40;99.90;;;;;;5089919;28;20056;-79
2022/11/24 11:13:31;;;;;;;9.68;2.60;;;11.50;99.90;;;;;;5073118;28;20484;-79
2022/11/24 11:15:57;;;;;;;11.00;2.60;;;11.70;99.90;;;;;;5072567;28;20498;-79
2022/11/24 11:18:32;;;;;;;10.93;2.88;;;11.90;99.90;;;;;;5057253;28;20573;-79
2022/11/24 11:21:03;;;;;;;12.20;3.05;;;12.00;99.90;;;;;;5058055;28;20086;-79
2022/11/24 11:23:33;;;;;;;11.25;2.83;;;12.00;99.90;;;;;;5077567;28;20037;-79
2022/11/24 11:26:20;;;;;;;14.07;3.53;;;12.00;99.90;;;;;;5071632;28;20167;-79
2022/11/24 11:28:59;;;;;;;12.50;3.47;;;11.90;99.90;;;;;;5065501;28;20071;-79
2022/11/24 11:31:25;;;;;;;8.32;3.17;;;12.00;99.90;;;;;;5068097;28;20489;-80
2022/11/24 11:34:08;;;;;;;13.18;3.60;;;12.20;99.90;;;;;;5056959;28;20526;-80
2022/11/24 11:36:42;;;;;;;10.23;3.38;;;12.40;99.90;;;;;;5074595;28;20036;-79
2022/11/24 11:39:24;;;;;;;11.68;3.15;;;12.60;99.90;;;;;;5073942;28;20060;-79
2022/11/24 11:42:15;;;;;;;11.73;3.03;;;12.90;99.90;;;;;;5074515;28;20053;-81
2022/11/24 11:44:44;;;;;;;12.15;3.10;;;13.00;99.90;;;;;;5071144;28;20040;-79
2022/11/24 11:47:17;;;;;;;15.63;4.00;;;13.20;99.90;;;;;;5065835;28;20494;-79
2022/11/24 11:49:43;;;;;;;10.18;3.72;;;13.30;99.90;;;;;;5074174;28;20182;-79
2022/11/24 11:52:43;;;;;;;13.20;3.38;;;13.40;99.90;;;;;;5086320;28;20073;-79
2022/11/24 11:55:46;;;;;;;13.10;3.50;;;13.60;99.90;;;;;;5067820;28;20052;-79
2022/11/24 11:58:27;;;;;;;12.68;3.38;;;13.80;99.90;;;;;;5072745;28;20045;-79
2022/11/24 12:01:14;;;;;;;12.27;4.47;;;14.00;99.90;;;;;;5074654;28;20546;-79
2022/11/24 12:03:56;;;;;;;14.35;3.22;;;14.10;99.90;;;;;;5065441;28;20500;-79
2022/11/24 12:06:44;;;;;;;10.70;3.15;;;13.90;99.90;;;;;;5073186;28;20449;-79
2022/11/24 12:09:26;;;;;;;10.15;3.33;;;13.80;99.90;;;;;;5053719;28;20455;-79
2022/11/24 12:12:08;;;;;;;13.30;3.50;;;13.70;99.90;;;;;;5054602;28;20057;-79
2022/11/24 12:14:59;;;;;;;11.15;2.90;;;13.70;99.90;;;;;;5088963;28;20061;-79
2022/11/24 12:17:36;;;;;;;11.77;3.45;;;13.80;99.90;;;;;;5072667;28;20096;-79
2022/11/24 12:20:29;;;;;;;13.10;3.55;;;13.70;99.90;;;;;;5073280;28;20412;-78
2022/11/24 12:23:10;;;;;;;12.07;2.95;;;13.90;99.90;;;;;;5073252;28;20094;-79
2022/11/24 12:25:51;;;;;;;12.85;3.25;;;14.20;99.90;;;;;;5073689;28;20113;-78
2022/11/24 12:28:19;;;;;;;13.75;3.17;;;14.50;99.90;;;;;;5068901;28;20062;-79
2022/11/24 12:31:04;;;;;;;11.20;3.17;;;14.20;99.90;;;;;;5083256;28;20099;-87
2022/11/24 12:33:55;;;;;;;13.40;3.10;;;14.30;99.90;;;;;;5067638;28;20101;-81
2022/11/24 12:36:51;;;;;;;12.05;2.97;;;14.00;99.90;;;;;;5066105;28;20076;-80
2022/11/24 12:39:55;;;;;;;15.80;3.03;;;13.80;99.90;;;;;;5071524;28;20119;-80
2022/11/24 12:42:29;;;;;;;13.77;2.85;;;13.60;99.90;;;;;;5015517;28;20143;-80
2022/11/24 12:45:15;;;;;;;16.92;2.90;;;13.60;99.90;;;;;;5015402;28;20051;-80
2022/11/24 12:48:03;;;;;;;10.65;3.30;;;14.00;99.90;;;;;;5076582;28;20053;-80
2022/11/24 12:50:34;;;;;;;12.60;2.95;;;14.30;99.90;;;;;;5070288;28;20496;-79
2022/11/24 12:53:12;;;;;;;14.13;3.08;;;14.50;99.90;;;;;;5059270;28;20102;-80
2022/11/24 12:55:39;;;;;;;13.57;3.47;;;14.30;99.90;;;;;;5069631;28;20051;-80
2022/11/24 12:58:18;;;;;;;12.82;3.35;;;14.40;99.90;;;;;;5067617;28;20474;-81
2022/11/24 13:01:07;;;;;;;14.02;3.17;;;14.50;99.90;;;;;;5071346;28;20036;-81